Time;durP1;ratioP1;P1;durP2;ratioP2;P2;SDS_P1;SDS_P2;PMS_P1;PMS_P2;Temp;Humidity;BMP_temperature;BMP_pressure;BME280_temperature;BME280_humidity;BME280_pressure;Samples;Min_cycle;Max_cycle;Signal;HPM_P1;HPM_P2
2022/01/01 00:00:16;;;;;;;2.35;1.65;;;20.50;51.00;;;;;;6220297;28;20036;-72
2022/01/01 00:03:16;;;;;;;3.53;2.00;;;20.50;50.90;;;;;;6220272;28;20046;-72
2022/01/01 00:06:17;;;;;;;2.30;1.63;;;20.50;51.00;;;;;;6211118;28;20479;-72
2022/01/01 00:09:18;;;;;;;2.92;1.73;;;20.50;51.00;;;;;;6196035;28;20066;-72
2022/01/01 00:12:18;;;;;;;2.80;1.85;;;20.50;51.00;;;;;;6210519;28;20048;-72
2022/01/01 00:15:20;;;;;;;1.92;1.50;;;20.50;51.00;;;;;;6219858;28;20030;-72
2022/01/01 00:18:20;;;;;;;2.17;1.55;;;20.50;51.00;;;;;;6219924;28;20030;-72
2022/01/01 00:21:21;;;;;;;2.90;2.03;;;20.50;51.00;;;;;;6219608;28;20124;-72
2022/01/01 00:24:21;;;;;;;2.65;1.90;;;20.50;51.00;;;;;;6220112;28;20101;-72
2022/01/01 00:27:22;;;;;;;2.35;1.77;;;20.50;51.00;;;;;;6219474;28;20061;-72
2022/01/01 00:30:22;;;;;;;2.65;1.88;;;20.50;51.00;;;;;;6217465;28;20137;-72
2022/01/01 00:33:24;;;;;;;1.70;1.45;;;20.50;51.00;;;;;;6195264;28;20061;-72
2022/01/01 00:36:26;;;;;;;3.05;2.00;;;20.40;50.90;;;;;;6209668;28;20455;-72
2022/01/01 00:39:26;;;;;;;3.03;2.03;;;20.40;50.90;;;;;;6219487;28;20022;-72
2022/01/01 00:42:27;;;;;;;2.83;1.90;;;20.50;51.00;;;;;;6219376;28;20041;-72
2022/01/01 00:45:27;;;;;;;3.03;1.98;;;20.50;51.00;;;;;;6214709;28;20076;-74
2022/01/01 00:48:28;;;;;;;2.17;1.80;;;20.50;51.00;;;;;;6219898;28;20113;-72
2022/01/01 00:51:29;;;;;;;2.92;2.17;;;20.50;50.90;;;;;;6214674;28;20034;-72
2022/01/01 00:54:30;;;;;;;2.25;1.85;;;20.40;51.00;;;;;;6216158;28;20045;-72
2022/01/01 00:57:30;;;;;;;2.53;2.00;;;20.50;51.00;;;;;;6208391;28;20030;-74
2022/01/01 01:00:31;;;;;;;3.17;2.03;;;20.50;51.00;;;;;;6198185;28;20022;-72
2022/01/01 01:03:31;;;;;;;2.55;1.80;;;20.50;51.00;;;;;;6195493;28;20496;-72
2022/01/01 01:06:32;;;;;;;2.10;1.90;;;20.50;51.00;;;;;;6219580;28;20481;-72
2022/01/01 01:09:32;;;;;;;2.22;1.75;;;20.50;51.00;;;;;;6218854;28;20034;-72
2022/01/01 01:12:47;;;;;;;2.08;1.83;;;20.50;51.00;;;;;;6218897;28;20038;-72
2022/01/01 01:15:48;;;;;;;2.83;1.92;;;20.50;51.00;;;;;;6218616;28;20092;-72
2022/01/01 01:18:50;;;;;;;2.63;1.85;;;20.40;50.90;;;;;;6218950;28;20445;-72
2022/01/01 01:21:51;;;;;;;2.60;2.10;;;20.50;51.00;;;;;;6209831;28;20022;-72
2022/01/01 01:24:53;;;;;;;3.03;2.00;;;20.50;51.00;;;;;;6218880;28;20538;-73
2022/01/01 01:27:53;;;;;;;2.45;1.90;;;20.50;51.00;;;;;;6215662;28;20118;-72
2022/01/01 01:30:54;;;;;;;2.65;1.95;;;20.50;51.00;;;;;;6209478;28;20022;-72
2022/01/01 01:33:54;;;;;;;3.15;2.15;;;20.50;51.00;;;;;;6194175;28;20377;-72
2022/01/01 01:36:55;;;;;;;2.72;2.00;;;20.50;51.00;;;;;;6212264;28;20037;-72
2022/01/01 01:39:56;;;;;;;2.47;1.80;;;20.50;51.00;;;;;;6218537;28;20052;-72
2022/01/01 01:42:57;;;;;;;2.30;1.60;;;20.50;51.00;;;;;;6218509;28;20105;-72
2022/01/01 01:46:03;;;;;;;2.40;1.80;;;20.50;51.00;;;;;;6215235;28;20025;-72
2022/01/01 01:49:03;;;;;;;2.33;1.80;;;20.50;51.00;;;;;;6218263;28;20022;-72
2022/01/01 01:52:04;;;;;;;2.53;1.60;;;20.50;51.00;;;;;;6200975;28;20493;-72
2022/01/01 01:55:08;;;;;;;1.90;1.60;;;20.50;51.00;;;;;;6200948;28;20039;-72
2022/01/01 01:58:09;;;;;;;2.22;1.80;;;20.50;51.00;;;;;;6218507;28;20088;-72
2022/01/01 02:01:20;;;;;;;3.28;1.80;;;20.50;51.00;;;;;;6215932;28;20030;-72
2022/01/01 02:04:21;;;;;;;2.05;1.60;;;20.50;51.00;;;;;;6223267;28;20402;-72
2022/01/01 02:07:22;;;;;;;1.95;1.67;;;20.50;51.00;;;;;;6202455;28;20537;-72
2022/01/01 02:10:23;;;;;;;1.90;1.70;;;20.50;51.00;;;;;;6196850;28;20068;-72
2022/01/01 02:13:30;;;;;;;2.45;1.85;;;20.50;51.00;;;;;;6218670;28;20030;-72
2022/01/01 02:16:38;;;;;;;3.00;2.00;;;20.50;51.00;;;;;;6217549;28;20085;-72
2022/01/01 02:20:03;;;;;;;2.05;1.60;;;20.50;51.00;;;;;;6223089;28;20026;-72
2022/01/01 02:23:05;;;;;;;1.63;1.40;;;20.50;51.00;;;;;;6223127;28;20038;-72
2022/01/01 02:26:09;;;;;;;1.50;1.38;;;20.50;51.00;;;;;;6222581;28;20072;-72
2022/01/01 02:29:10;;;;;;;1.90;1.53;;;20.50;51.00;;;;;;6222405;28;20030;-72
2022/01/01 02:32:15;;;;;;;2.33;1.85;;;20.50;51.00;;;;;;6202628;28;20062;-72
2022/01/01 02:35:18;;;;;;;2.53;1.90;;;20.50;51.00;;;;;;6199516;28;20493;-72
2022/01/01 02:38:18;;;;;;;2.47;1.85;;;20.50;51.00;;;;;;6222350;28;20447;-72
2022/01/01 02:41:19;;;;;;;1.73;1.50;;;20.50;51.00;;;;;;6222007;28;20104;-72
2022/01/01 02:44:21;;;;;;;1.90;1.60;;;20.50;51.00;;;;;;6221885;28;20022;-72
2022/01/01 02:47:22;;;;;;;1.98;1.40;;;20.40;50.90;;;;;;6220301;28;20037;-72
2022/01/01 02:50:22;;;;;;;2.13;1.50;;;20.50;51.00;;;;;;6221570;28;20117;-72
2022/01/01 02:53:23;;;;;;;1.63;1.40;;;20.50;51.00;;;;;;6221921;28;20123;-72
2022/01/01 02:56:24;;;;;;;1.70;1.30;;;20.50;51.00;;;;;;6221749;28;20115;-72
2022/01/01 02:59:25;;;;;;;2.08;1.75;;;20.40;50.90;;;;;;6221950;28;20034;-72
2022/01/01 03:02:26;;;;;;;2.05;1.60;;;20.50;51.00;;;;;;6221079;28;20057;-72
2022/01/01 03:05:27;;;;;;;1.92;1.50;;;20.50;51.00;;;;;;6221618;28;20021;-72
2022/01/01 03:08:27;;;;;;;1.50;1.20;;;20.50;51.00;;;;;;6221529;28;20034;-73
2022/01/01 03:11:28;;;;;;;1.75;1.50;;;20.50;51.00;;;;;;6221689;28;20508;-72
2022/01/01 03:14:28;;;;;;;1.70;1.48;;;20.50;51.00;;;;;;6220915;28;20101;-72
2022/01/01 03:17:29;;;;;;;2.75;1.60;;;20.50;51.00;;;;;;6221114;28;20026;-72
2022/01/01 03:20:29;;;;;;;1.25;1.15;;;20.40;51.00;;;;;;6212299;28;20035;-72
2022/01/01 03:23:30;;;;;;;2.70;1.50;;;20.50;51.00;;;;;;6221329;28;20030;-72
2022/01/01 03:26:30;;;;;;;1.55;1.20;;;20.50;51.00;;;;;;6220856;28;20033;-72
2022/01/01 03:29:32;;;;;;;1.20;1.00;;;20.40;51.00;;;;;;6221067;28;20037;-72
2022/01/01 03:32:33;;;;;;;1.30;1.20;;;20.40;50.90;;;;;;6201116;28;20037;-72
2022/01/01 03:35:33;;;;;;;1.52;1.30;;;20.50;51.00;;;;;;6203665;28;20033;-72
2022/01/01 03:38:34;;;;;;;1.85;1.50;;;20.50;51.00;;;;;;6203574;28;20386;-72
2022/01/01 03:41:35;;;;;;;2.13;1.38;;;20.40;50.90;;;;;;6208239;28;20026;-73
2022/01/01 03:44:35;;;;;;;1.20;1.10;;;20.50;51.70;;;;;;6220595;28;20384;-72
2022/01/01 03:47:36;;;;;;;1.75;1.33;;;20.40;50.90;;;;;;6220679;28;20485;-72
2022/01/01 03:50:36;;;;;;;1.63;1.20;;;20.50;51.00;;;;;;6219340;28;20061;-72
2022/01/01 03:53:37;;;;;;;1.50;1.27;;;20.50;51.00;;;;;;6197950;28;20523;-72
2022/01/01 03:56:38;;;;;;;1.20;1.10;;;20.50;51.00;;;;;;6209028;28;20053;-72
2022/01/01 04:03:36;;;;;;;2.03;1.10;;;20.40;50.90;;;;;;6220219;28;20738;-72
2022/01/01 04:06:36;;;;;;;1.33;1.02;;;20.40;51.00;;;;;;6220054;28;20028;-72
2022/01/01 04:09:37;;;;;;;1.20;1.08;;;20.40;51.00;;;;;;6220268;28;20440;-72
2022/01/01 04:12:37;;;;;;;1.58;1.30;;;20.40;51.00;;;;;;6220028;28;20026;-72
2022/01/01 04:15:40;;;;;;;1.52;1.10;;;20.50;51.00;;;;;;6219461;28;20053;-72
2022/01/01 04:18:41;;;;;;;1.10;1.00;;;20.50;51.00;;;;;;6214295;28;20029;-74
2022/01/01 04:21:42;;;;;;;1.70;1.30;;;20.40;50.90;;;;;;6219898;28;20507;-72
2022/01/01 04:24:42;;;;;;;1.42;1.10;;;20.40;51.00;;;;;;6219275;28;20109;-72
2022/01/01 04:27:43;;;;;;;1.70;1.20;;;20.40;50.90;;;;;;6219511;28;20025;-72
2022/01/01 04:30:43;;;;;;;2.25;1.20;;;20.40;50.90;;;;;;6214891;28;20397;-72
2022/01/01 04:33:44;;;;;;;1.33;1.02;;;20.40;51.00;;;;;;6204644;28;20041;-72
2022/01/01 04:36:53;;;;;;;1.42;1.15;;;20.40;50.90;;;;;;6219363;28;20025;-72
2022/01/01 04:39:59;;;;;;;1.27;1.10;;;20.50;51.00;;;;;;6219212;28;20037;-72
2022/01/01 04:42:59;;;;;;;2.65;1.20;;;20.40;50.90;;;;;;6219724;28;20029;-72
2022/01/01 04:46:00;;;;;;;1.70;1.17;;;20.40;50.90;;;;;;6212942;28;20491;-72
2022/01/01 04:49:01;;;;;;;1.33;1.00;;;20.40;51.00;;;;;;6219310;28;20034;-72
2022/01/01 04:52:01;;;;;;;1.30;1.15;;;20.40;51.00;;;;;;6219207;28;20026;-72
2022/01/01 04:55:02;;;;;;;1.25;0.98;;;20.40;51.00;;;;;;6218794;28;20074;-72
2022/01/01 04:58:03;;;;;;;1.52;1.10;;;20.40;51.00;;;;;;6216189;28;20034;-72
2022/01/01 05:01:03;;;;;;;1.02;0.93;;;20.40;51.00;;;;;;6215608;28;20038;-72
2022/01/01 05:04:04;;;;;;;1.35;1.02;;;20.40;50.90;;;;;;6219442;28;20553;-72
2022/01/01 05:07:07;;;;;;;1.70;1.20;;;20.40;51.00;;;;;;6203288;28;20022;-74
2022/01/01 05:10:07;;;;;;;1.20;1.00;;;20.40;50.90;;;;;;6194773;28;20493;-72
2022/01/01 05:13:08;;;;;;;1.20;1.10;;;20.40;51.00;;;;;;6215034;28;20030;-72
2022/01/01 05:16:14;;;;;;;1.13;0.82;;;20.40;51.70;;;;;;6201222;28;20381;-72
2022/01/01 05:19:16;;;;;;;1.25;1.00;;;20.40;51.00;;;;;;6218876;28;20030;-72
2022/01/01 05:22:16;;;;;;;1.40;1.00;;;20.40;50.90;;;;;;6207404;28;20469;-72
2022/01/01 05:25:17;;;;;;;1.08;0.98;;;20.40;51.00;;;;;;6219158;28;20028;-72
2022/01/01 05:28:18;;;;;;;1.33;1.00;;;20.40;51.00;;;;;;6218583;28;20076;-72
2022/01/01 05:31:19;;;;;;;1.17;0.93;;;20.40;51.00;;;;;;6209038;28;20381;-72
2022/01/01 05:34:20;;;;;;;0.70;0.70;;;20.40;51.00;;;;;;6209677;28;20034;-72
2022/01/01 05:37:20;;;;;;;1.00;0.90;;;20.40;51.00;;;;;;6223030;28;20030;-72
2022/01/01 05:40:21;;;;;;;1.27;1.02;;;20.40;51.00;;;;;;6223806;28;20041;-72
2022/01/01 05:43:21;;;;;;;1.52;1.08;;;20.40;51.00;;;;;;6223779;28;20030;-72
2022/01/01 05:46:22;;;;;;;1.80;1.17;;;20.40;51.00;;;;;;6223218;28;20065;-72
2022/01/01 05:49:23;;;;;;;1.27;1.17;;;20.40;51.00;;;;;;6223823;28;20030;-72
2022/01/01 05:52:23;;;;;;;0.65;0.63;;;20.40;51.00;;;;;;6223696;28;20032;-72
2022/01/01 05:55:24;;;;;;;1.25;0.90;;;20.40;51.00;;;;;;6205537;28;20125;-72
2022/01/01 05:58:24;;;;;;;1.08;0.98;;;20.40;51.00;;;;;;6223492;28;20036;-72
2022/01/01 06:01:25;;;;;;;1.67;0.93;;;20.50;51.00;;;;;;6212393;28;20062;-72
2022/01/01 06:04:25;;;;;;;1.60;0.95;;;20.40;51.00;;;;;;6192217;28;20046;-72
2022/01/01 06:07:26;;;;;;;0.85;0.77;;;20.50;51.00;;;;;;6181069;28;20027;-72
2022/01/01 06:10:27;;;;;;;1.20;0.80;;;20.40;51.00;;;;;;6197187;28;20030;-72
2022/01/01 06:13:28;;;;;;;1.73;1.27;;;20.40;51.00;;;;;;6222015;28;20088;-72
2022/01/01 06:16:28;;;;;;;1.60;0.95;;;20.40;51.00;;;;;;6222572;28;20034;-72
2022/01/01 06:19:29;;;;;;;0.95;0.88;;;20.50;51.00;;;;;;6222613;28;20033;-72
2022/01/01 06:22:30;;;;;;;1.58;0.98;;;20.50;51.10;;;;;;6222640;28;20022;-72
2022/01/01 06:25:30;;;;;;;0.95;0.77;;;20.50;51.00;;;;;;6222668;28;20084;-73
2022/01/01 06:28:31;;;;;;;1.35;0.85;;;20.50;51.00;;;;;;6220804;28;20025;-72
2022/01/01 06:31:31;;;;;;;1.23;0.90;;;20.40;51.00;;;;;;6207617;28;20041;-72
2022/01/01 06:34:32;;;;;;;1.45;0.90;;;20.50;51.00;;;;;;6197899;28;20473;-72
2022/01/01 06:37:32;;;;;;;2.35;1.08;;;20.50;51.00;;;;;;6221208;28;20038;-72
2022/01/01 06:40:33;;;;;;;1.13;0.80;;;20.40;51.00;;;;;;6221887;28;20469;-72
2022/01/01 06:43:34;;;;;;;1.17;0.98;;;20.50;51.00;;;;;;6222214;28;20030;-72
2022/01/01 06:46:34;;;;;;;0.77;0.70;;;20.50;51.00;;;;;;6216682;28;20026;-72
2022/01/01 06:49:35;;;;;;;1.00;0.88;;;20.40;51.00;;;;;;6221851;28;20026;-72
2022/01/01 06:52:42;;;;;;;0.82;0.73;;;20.40;51.00;;;;;;6221744;28;20038;-72
2022/01/01 06:55:43;;;;;;;1.38;0.88;;;20.40;50.90;;;;;;6221718;28;20477;-72
2022/01/01 06:58:44;;;;;;;0.80;0.70;;;20.40;51.00;;;;;;6221982;28;20021;-72
2022/01/01 07:01:45;;;;;;;0.90;0.77;;;20.40;51.00;;;;;;6215855;28;20267;-72
2022/01/01 07:04:46;;;;;;;0.93;0.75;;;20.40;51.00;;;;;;6221564;28;20026;-72
2022/01/01 07:07:46;;;;;;;0.85;0.75;;;20.40;51.00;;;;;;6218517;28;20034;-72
2022/01/01 07:10:47;;;;;;;0.45;0.45;;;20.50;51.00;;;;;;6218709;28;20034;-72
2022/01/01 07:13:47;;;;;;;1.52;0.93;;;20.50;51.00;;;;;;6221599;28;20033;-72
2022/01/01 07:16:48;;;;;;;0.98;0.70;;;20.40;50.90;;;;;;6221122;28;20022;-72
2022/01/01 07:19:48;;;;;;;1.05;0.70;;;20.40;51.00;;;;;;6217870;28;20019;-72
2022/01/01 07:22:49;;;;;;;1.40;0.85;;;20.40;51.00;;;;;;6213536;28;20025;-72
2022/01/01 07:25:49;;;;;;;0.95;0.70;;;20.40;51.00;;;;;;6221297;28;20026;-72
2022/01/01 07:28:50;;;;;;;1.10;0.90;;;20.50;51.00;;;;;;6221476;28;20107;-72
2022/01/01 07:31:53;;;;;;;0.75;0.70;;;20.40;51.00;;;;;;6206825;28;20109;-72
2022/01/01 07:34:55;;;;;;;1.30;1.00;;;20.50;51.00;;;;;;6198269;28;20041;-72
2022/01/01 07:37:55;;;;;;;1.23;0.90;;;20.40;50.90;;;;;;6221000;28;20115;-72
2022/01/01 07:40:56;;;;;;;0.70;0.63;;;20.40;51.00;;;;;;6220806;28;20255;-72
2022/01/01 07:43:56;;;;;;;1.48;0.80;;;20.40;51.00;;;;;;6220883;28;20364;-72
2022/01/01 07:46:57;;;;;;;1.50;0.90;;;20.40;50.90;;;;;;6220447;28;20259;-72
2022/01/01 07:49:57;;;;;;;0.80;0.77;;;20.40;51.00;;;;;;6220566;28;20444;-72
2022/01/01 07:52:58;;;;;;;1.27;0.82;;;20.50;51.00;;;;;;6219762;28;20022;-72
2022/01/01 07:55:59;;;;;;;1.30;0.70;;;20.40;51.00;;;;;;6203568;28;20037;-72
2022/01/01 07:58:59;;;;;;;1.02;0.82;;;20.40;51.00;;;;;;6217885;28;20029;-72
2022/01/01 08:02:00;;;;;;;1.20;0.80;;;20.40;51.00;;;;;;6220237;28;20508;-72
2022/01/01 08:05:00;;;;;;;1.25;0.73;;;20.40;51.00;;;;;;6220215;28;20500;-72
2022/01/01 08:08:01;;;;;;;1.23;0.82;;;20.40;51.00;;;;;;6207827;28;20585;-72
2022/01/01 08:11:01;;;;;;;1.35;0.70;;;20.50;51.00;;;;;;6219960;28;20022;-72
2022/01/01 08:14:02;;;;;;;1.00;0.80;;;20.40;51.00;;;;;;6220090;28;20029;-72
2022/01/01 08:17:04;;;;;;;1.13;0.80;;;20.50;51.00;;;;;;6219384;28;20026;-72
2022/01/01 08:20:05;;;;;;;1.25;0.88;;;20.50;51.00;;;;;;6217128;28;20029;-72
2022/01/01 08:23:06;;;;;;;1.77;0.80;;;20.40;51.00;;;;;;6219503;28;20100;-72
2022/01/01 08:26:07;;;;;;;1.23;0.80;;;20.50;51.00;;;;;;6219478;28;20041;-72
2022/01/01 08:29:07;;;;;;;0.88;0.70;;;20.50;51.00;;;;;;6219389;28;20030;-72
2022/01/01 08:32:08;;;;;;;0.60;0.57;;;20.50;51.00;;;;;;6203487;28;20027;-72
2022/01/01 08:35:09;;;;;;;1.33;0.90;;;20.50;51.00;;;;;;6199055;28;20084;-72
2022/01/01 08:38:10;;;;;;;1.00;0.80;;;20.40;50.90;;;;;;6219840;28;20480;-72
2022/01/01 08:41:10;;;;;;;0.63;0.60;;;20.40;51.00;;;;;;6216369;28;20376;-72
2022/01/01 08:44:11;;;;;;;1.38;0.77;;;20.40;50.90;;;;;;6199173;28;20022;-71
2022/01/01 08:47:12;;;;;;;1.02;0.80;;;20.50;51.00;;;;;;6218388;28;20437;-72
2022/01/01 08:50:13;;;;;;;1.05;0.63;;;20.50;51.00;;;;;;6219932;28;20025;-72
2022/01/01 08:53:15;;;;;;;0.77;0.70;;;20.50;50.90;;;;;;6220615;28;20326;-72
2022/01/01 08:56:16;;;;;;;5.00;0.80;;;20.50;51.00;;;;;;6212958;28;20065;-72
2022/01/01 08:59:16;;;;;;;1.02;0.80;;;20.40;50.90;;;;;;6219654;28;20032;-72
2022/01/01 09:02:18;;;;;;;0.90;0.60;;;20.40;50.90;;;;;;6220191;28;20440;-72
2022/01/01 09:05:18;;;;;;;1.17;0.80;;;20.40;50.90;;;;;;6219906;28;20480;-72
2022/01/01 09:08:19;;;;;;;1.17;0.80;;;20.40;50.90;;;;;;6220464;28;20033;-72
2022/01/01 09:11:20;;;;;;;1.20;1.00;;;20.40;50.90;;;;;;6219313;28;20033;-72
2022/01/01 09:14:20;;;;;;;1.63;0.90;;;20.50;51.00;;;;;;6219154;28;20061;-72
2022/01/01 09:17:22;;;;;;;0.95;0.80;;;20.50;51.00;;;;;;6202302;28;20030;-72
2022/01/01 09:20:22;;;;;;;1.63;0.70;;;20.50;51.70;;;;;;6211797;28;20446;-72
2022/01/01 09:23:23;;;;;;;1.00;0.73;;;20.40;50.90;;;;;;6218672;28;20045;-72
2022/01/01 09:26:23;;;;;;;1.17;0.75;;;20.50;51.00;;;;;;6219729;28;20547;-72
2022/01/01 09:29:24;;;;;;;0.60;0.52;;;20.50;51.00;;;;;;6215706;28;20149;-72
2022/01/01 09:32:24;;;;;;;1.20;0.88;;;20.40;50.90;;;;;;6207897;28;20081;-72
2022/01/01 09:35:25;;;;;;;1.13;0.70;;;20.50;51.00;;;;;;6201534;28;20045;-72
2022/01/01 09:38:25;;;;;;;0.60;0.60;;;20.50;50.90;;;;;;6219929;28;20544;-72
2022/01/01 09:41:26;;;;;;;0.70;0.60;;;20.50;50.90;;;;;;6202393;28;20030;-72
2022/01/01 09:44:27;;;;;;;1.55;0.80;;;20.40;50.90;;;;;;6219930;28;20026;-72
2022/01/01 09:47:28;;;;;;;1.10;0.90;;;20.50;50.90;;;;;;6219092;28;20088;-72
2022/01/01 09:50:29;;;;;;;0.73;0.60;;;20.50;50.90;;;;;;6220109;28;20423;-72
2022/01/01 09:53:31;;;;;;;1.27;0.73;;;20.50;50.90;;;;;;6211081;28;20422;-72
2022/01/01 09:56:31;;;;;;;0.98;0.60;;;20.50;50.90;;;;;;6205844;28;20072;-72
2022/01/01 09:59:32;;;;;;;0.98;0.65;;;20.50;50.90;;;;;;6218629;28;20037;-72
2022/01/01 10:02:33;;;;;;;0.60;0.60;;;20.50;50.90;;;;;;6218175;28;20050;-72
2022/01/01 10:05:33;;;;;;;1.08;0.82;;;20.50;50.90;;;;;;6215281;28;20026;-72
2022/01/01 10:08:38;;;;;;;1.40;0.95;;;20.50;50.90;;;;;;6200049;28;20509;-72
2022/01/01 10:11:38;;;;;;;2.50;0.88;;;20.50;50.90;;;;;;6218296;28;20029;-72
2022/01/01 10:14:41;;;;;;;1.02;0.68;;;20.50;50.90;;;;;;6215071;28;20263;-72
2022/01/01 10:17:42;;;;;;;1.48;0.88;;;20.50;50.90;;;;;;6217818;28;20036;-72
2022/01/01 10:20:44;;;;;;;1.73;0.75;;;20.50;50.90;;;;;;6218196;28;20042;-73
2022/01/01 10:23:47;;;;;;;0.93;0.70;;;20.50;50.90;;;;;;6221422;28;20037;-72
2022/01/01 10:30:07;;;;;;;0.75;0.60;;;20.50;50.90;;;;;;6221846;28;20030;-72
2022/01/01 10:33:18;;;;;;;0.93;0.47;;;20.50;50.90;;;;;;6198520;28;20045;-72
2022/01/01 10:36:20;;;;;;;1.80;0.80;;;20.50;50.90;;;;;;6210975;28;20045;-72
2022/01/01 10:39:22;;;;;;;1.00;0.70;;;20.50;50.90;;;;;;6222880;28;20025;-72
2022/01/01 10:42:23;;;;;;;1.30;0.90;;;20.50;50.90;;;;;;6222185;28;20500;-72
2022/01/01 10:45:41;;;;;;;0.77;0.52;;;20.50;50.90;;;;;;6220471;28;20483;-72
2022/01/01 10:49:29;;;;;;;1.88;0.88;;;20.50;50.90;;;;;;6222344;28;20470;-74
2022/01/01 10:52:13;;;;;;;1.20;0.65;;;20.50;50.90;;;;;;6218724;28;20476;-72
2022/01/01 10:55:16;;;;;;;1.40;0.80;;;20.50;50.90;;;;;;6221862;28;20100;-72
2022/01/01 10:58:18;;;;;;;0.75;0.70;;;20.50;50.90;;;;;;6222608;28;20097;-72
2022/01/01 11:01:21;;;;;;;1.33;0.90;;;20.50;50.90;;;;;;6221303;28;20388;-72
2022/01/01 11:04:21;;;;;;;1.35;0.90;;;20.50;50.90;;;;;;6216139;28;20057;-72
2022/01/01 11:07:27;;;;;;;1.42;0.80;;;20.50;50.90;;;;;;6219136;28;20029;-72
2022/01/01 11:10:28;;;;;;;0.80;0.73;;;20.50;50.90;;;;;;6197970;28;20064;-72
2022/01/01 11:13:31;;;;;;;1.13;0.73;;;20.50;50.90;;;;;;6198036;28;20214;-72
2022/01/01 11:16:32;;;;;;;0.70;0.60;;;20.50;50.90;;;;;;6204586;28;20157;-72
2022/01/01 11:19:33;;;;;;;1.13;0.90;;;20.50;50.90;;;;;;6195997;28;20033;-74
2022/01/01 11:22:34;;;;;;;1.00;0.75;;;20.50;50.90;;;;;;6193442;28;20045;-72
2022/01/01 11:25:36;;;;;;;1.02;0.70;;;20.50;51.00;;;;;;6196044;28;20062;-72
2022/01/01 11:28:37;;;;;;;0.82;0.57;;;20.50;51.00;;;;;;6208967;28;20037;-72
2022/01/01 11:31:40;;;;;;;3.97;0.77;;;20.50;50.90;;;;;;6204841;28;20030;-72
2022/01/01 11:34:44;;;;;;;1.48;0.80;;;20.50;50.90;;;;;;6194515;28;20042;-73
2022/01/01 11:38:05;;;;;;;1.40;0.65;;;20.50;50.90;;;;;;6195793;28;20436;-73
2022/01/01 11:41:11;;;;;;;1.08;0.82;;;20.50;50.90;;;;;;6207824;28;20053;-72
2022/01/01 11:44:30;;;;;;;0.85;0.60;;;20.50;50.90;;;;;;6191885;28;20116;-72
2022/01/01 11:47:32;;;;;;;1.30;0.90;;;20.50;50.90;;;;;;6214816;28;20472;-72
2022/01/01 11:50:43;;;;;;;1.48;0.85;;;20.50;50.90;;;;;;6218409;28;20025;-72
2022/01/01 11:54:14;;;;;;;1.33;0.70;;;20.50;50.90;;;;;;6215594;28;20457;-72
2022/01/01 11:57:19;;;;;;;1.50;0.77;;;20.50;50.90;;;;;;6212955;28;20037;-72
2022/01/01 12:00:22;;;;;;;1.17;0.85;;;20.50;50.90;;;;;;6207900;28;20049;-73
2022/01/01 12:03:23;;;;;;;1.27;0.98;;;20.50;50.90;;;;;;6219064;28;20181;-72
2022/01/01 12:06:25;;;;;;;1.08;0.65;;;20.50;50.90;;;;;;6191690;28;20050;-72
2022/01/01 12:09:27;;;;;;;1.08;0.60;;;20.50;50.90;;;;;;6216740;28;20026;-72
2022/01/01 12:12:44;;;;;;;1.10;0.80;;;20.50;50.90;;;;;;6214980;28;20084;-72
2022/01/01 12:15:51;;;;;;;1.42;0.70;;;20.50;50.90;;;;;;6215480;28;20413;-72
2022/01/01 12:19:03;;;;;;;0.65;0.52;;;20.50;50.90;;;;;;6219183;28;20029;-73
2022/01/01 12:22:08;;;;;;;0.80;0.70;;;20.50;50.90;;;;;;6218009;28;20026;-73
2022/01/01 12:25:09;;;;;;;1.43;0.70;;;20.50;50.90;;;;;;6217366;28;20543;-73
2022/01/01 12:28:13;;;;;;;3.97;0.90;;;20.50;51.00;;;;;;6218173;28;20029;-73
2022/01/01 12:31:21;;;;;;;1.38;0.80;;;20.50;51.00;;;;;;6211979;28;20025;-72
2022/01/01 12:34:22;;;;;;;1.17;0.73;;;20.50;51.00;;;;;;6216863;28;20030;-73
2022/01/01 12:37:35;;;;;;;1.67;0.90;;;20.50;51.00;;;;;;6216530;28;20032;-72
2022/01/01 12:40:59;;;;;;;2.35;0.98;;;20.50;51.00;;;;;;6218108;28;20061;-73
2022/01/01 12:44:09;;;;;;;1.20;0.75;;;20.50;51.00;;;;;;6216958;28;20156;-72
2022/01/01 12:47:12;;;;;;;1.92;0.90;;;20.50;51.00;;;;;;6215790;28;20026;-72
2022/01/01 12:50:13;;;;;;;1.00;0.90;;;20.50;51.10;;;;;;6206056;28;20030;-72
2022/01/01 12:53:17;;;;;;;1.23;0.80;;;20.50;51.10;;;;;;6218211;28;20076;-72
2022/01/01 12:56:17;;;;;;;1.45;0.80;;;20.50;51.10;;;;;;6217269;28;20380;-72
2022/01/01 12:59:18;;;;;;;2.10;0.90;;;20.50;51.10;;;;;;6217868;28;20033;-72
2022/01/01 13:02:19;;;;;;;0.95;0.82;;;20.50;51.10;;;;;;6215926;28;20046;-72
2022/01/01 13:05:23;;;;;;;1.67;0.90;;;20.50;51.10;;;;;;6211060;28;20030;-72
2022/01/01 13:08:23;;;;;;;1.35;0.80;;;20.50;51.10;;;;;;6217749;28;20026;-72
2022/01/01 13:11:24;;;;;;;1.02;0.85;;;20.50;51.10;;;;;;6203145;28;20037;-73
2022/01/01 13:14:25;;;;;;;0.68;0.68;;;20.50;51.10;;;;;;6198259;28;20567;-72
2022/01/01 13:17:26;;;;;;;1.25;0.80;;;20.50;51.20;;;;;;6199924;28;20109;-72
2022/01/01 13:20:26;;;;;;;1.20;0.70;;;20.50;51.10;;;;;;6193023;28;20856;-72
2022/01/01 13:23:27;;;;;;;1.27;0.88;;;20.50;51.10;;;;;;6213988;28;20045;-74
2022/01/01 13:26:28;;;;;;;1.90;0.98;;;20.50;51.10;;;;;;6197678;28;20384;-72
2022/01/01 13:29:29;;;;;;;2.15;0.90;;;20.50;51.20;;;;;;6216067;28;20326;-72
2022/01/01 13:32:30;;;;;;;1.45;1.00;;;20.50;51.20;;;;;;6202631;28;20117;-73
2022/01/01 13:35:31;;;;;;;2.13;1.33;;;20.50;51.20;;;;;;6199479;28;20037;-73
2022/01/01 13:38:33;;;;;;;2.90;1.48;;;20.50;51.20;;;;;;6203445;28;20026;-72
2022/01/01 13:41:36;;;;;;;3.85;1.70;;;20.50;51.20;;;;;;6207052;28;20033;-73
2022/01/01 13:44:42;;;;;;;4.70;2.05;;;20.50;51.20;;;;;;6205275;28;20366;-72
2022/01/01 13:47:43;;;;;;;4.30;2.33;;;20.50;51.20;;;;;;6215050;28;20488;-72
2022/01/01 13:50:47;;;;;;;4.97;2.30;;;20.50;51.20;;;;;;6201208;28;20030;-72
2022/01/01 13:53:48;;;;;;;7.45;2.65;;;20.50;51.20;;;;;;6210095;28;20022;-72
2022/01/01 13:56:53;;;;;;;5.70;2.38;;;20.50;51.20;;;;;;6208300;28;20038;-72
2022/01/01 13:59:55;;;;;;;6.60;2.45;;;20.50;51.20;;;;;;6213031;28;20109;-72
2022/01/01 14:02:57;;;;;;;8.82;3.70;;;20.50;51.20;;;;;;6218088;28;20049;-72
2022/01/01 14:06:00;;;;;;;7.72;3.15;;;20.50;51.20;;;;;;6203561;28;20053;-72
2022/01/01 14:09:04;;;;;;;6.22;2.85;;;20.50;51.30;;;;;;6221653;28;20072;-72
2022/01/01 14:12:06;;;;;;;8.55;3.63;;;20.50;51.20;;;;;;6207618;28;20076;-72
2022/01/01 14:15:07;;;;;;;6.20;2.92;;;20.50;51.20;;;;;;6217248;28;20038;-72
2022/01/01 14:18:07;;;;;;;7.38;3.33;;;20.60;51.30;;;;;;6216930;28;20393;-73
2022/01/01 14:21:08;;;;;;;10.02;4.22;;;20.60;51.30;;;;;;6211753;28;20025;-74
2022/01/01 14:24:19;;;;;;;10.93;3.25;;;20.60;51.50;;;;;;6221471;28;20037;-72
2022/01/01 14:27:20;;;;;;;6.85;3.00;;;20.60;51.30;;;;;;6207347;28;20031;-72
2022/01/01 14:30:20;;;;;;;13.50;3.58;;;20.70;51.40;;;;;;6205334;28;20141;-72
2022/01/01 14:33:23;;;;;;;12.93;3.53;;;20.70;51.40;;;;;;6203250;28;20131;-72
2022/01/01 14:36:23;;;;;;;8.70;3.55;;;20.70;51.40;;;;;;6204381;28;20042;-72
2022/01/01 14:39:24;;;;;;;8.38;3.72;;;20.70;51.40;;;;;;6212599;28;20053;-72
2022/01/01 14:42:24;;;;;;;6.95;3.13;;;20.70;51.40;;;;;;6206800;28;20058;-72
2022/01/01 14:45:26;;;;;;;6.97;3.05;;;20.70;51.30;;;;;;6207459;28;20018;-72
2022/01/01 14:48:41;;;;;;;8.57;3.35;;;20.70;51.30;;;;;;6213408;28;20030;-72
2022/01/01 14:51:41;;;;;;;9.02;3.47;;;20.70;51.30;;;;;;6209157;28;20022;-72
2022/01/01 14:54:52;;;;;;;6.18;3.08;;;20.70;51.40;;;;;;6213053;28;20034;-72
2022/01/01 14:57:59;;;;;;;9.65;3.50;;;20.70;51.40;;;;;;6216867;28;20589;-72
2022/01/01 15:01:00;;;;;;;8.20;3.08;;;20.60;51.40;;;;;;6209745;28;20030;-74
2022/01/01 15:04:01;;;;;;;8.27;2.75;;;20.70;51.40;;;;;;6218324;28;20054;-72
2022/01/01 15:07:03;;;;;;;6.50;3.08;;;20.70;52.00;;;;;;6210903;28;20038;-73
2022/01/01 15:10:06;;;;;;;6.65;2.35;;;20.70;51.90;;;;;;6208757;28;20076;-73
2022/01/01 15:13:07;;;;;;;3.88;2.60;;;20.70;51.80;;;;;;6218801;28;20401;-72
2022/01/01 15:16:10;;;;;;;6.25;2.88;;;20.70;51.70;;;;;;6216753;28;20484;-74
2022/01/01 15:19:11;;;;;;;14.32;3.33;;;20.70;51.60;;;;;;6219737;28;20532;-72
2022/01/01 15:22:16;;;;;;;6.32;2.78;;;20.70;51.60;;;;;;6209226;28;20068;-72
2022/01/01 15:25:20;;;;;;;5.88;2.72;;;20.70;51.60;;;;;;6212006;28;20022;-73
2022/01/01 15:28:23;;;;;;;7.60;2.72;;;20.60;51.50;;;;;;6216598;28;20440;-72
2022/01/01 15:31:31;;;;;;;5.85;3.00;;;20.60;51.60;;;;;;6212526;28;20029;-72
2022/01/01 15:34:33;;;;;;;10.13;3.10;;;20.60;51.50;;;;;;6210199;28;20064;-72
2022/01/01 15:37:36;;;;;;;4.82;2.47;;;20.60;51.50;;;;;;6216558;28;20071;-72
2022/01/01 15:40:56;;;;;;;5.60;2.75;;;20.60;51.60;;;;;;6200543;28;20500;-72
2022/01/01 15:43:57;;;;;;;5.50;2.70;;;20.60;51.60;;;;;;6208766;28;20118;-72
2022/01/01 15:47:00;;;;;;;5.25;2.45;;;20.60;51.60;;;;;;6219802;28;20030;-72
2022/01/01 15:50:01;;;;;;;5.88;2.85;;;20.60;51.60;;;;;;6220093;28;20105;-72
2022/01/01 15:53:02;;;;;;;6.18;2.90;;;20.60;51.60;;;;;;6217465;28;20713;-72